sensor_id;sensor_type;location;lat;lon;timestamp;pressure;altitude;pressure_sealevel;temperature;humidity
37610;BME280;23457;51.966;8.230;2023-02-26T00:01:13;100971.81;;;0.13;100.00
37610;BME280;23457;51.966;8.230;2023-02-26T00:03:40;100977.84;;;0.42;100.00
37610;BME280;23457;51.966;8.230;2023-02-26T00:06:07;100981.75;;;0.50;100.00
37610;BME280;23457;51.966;8.230;2023-02-26T00:08:35;100989.84;;;0.43;100.00
37610;BME280;23457;51.966;8.230;2023-02-26T00:11:05;100982.75;;;0.39;100.00
37610;BME280;23457;51.966;8.230;2023-02-26T00:13:32;100992.34;;;0.56;100.00
37610;BME280;23457;51.966;8.230;2023-02-26T00:16:00;100987.03;;;0.53;99.73
37610;BME280;23457;51.966;8.230;2023-02-26T00:18:27;100998.78;;;0.64;98.39
37610;BME280;23457;51.966;8.230;2023-02-26T00:20:54;101000.19;;;0.59;97.88
37610;BME280;23457;51.966;8.230;2023-02-26T00:23:21;101005.84;;;0.68;96.81
37610;BME280;23457;51.966;8.230;2023-02-26T00:25:49;101007.44;;;0.66;96.92
37610;BME280;23457;51.966;8.230;2023-02-26T00:28:16;101011.16;;;0.71;97.03
37610;BME280;23457;51.966;8.230;2023-02-26T00:30:44;101017.41;;;0.61;95.78
37610;BME280;23457;51.966;8.230;2023-02-26T00:33:11;101020.84;;;0.62;95.56
37610;BME280;23457;51.966;8.230;2023-02-26T00:35:38;101024.47;;;0.65;95.98
37610;BME280;23457;51.966;8.230;2023-02-26T00:38:06;101028.38;;;0.74;96.08
37610;BME280;23457;51.966;8.230;2023-02-26T00:40:45;101028.34;;;0.59;95.30
37610;BME280;23457;51.966;8.230;2023-02-26T00:43:20;101038.81;;;0.49;95.76
37610;BME280;23457;51.966;8.230;2023-02-26T00:54:17;101045.59;;;0.48;93.33
37610;BME280;23457;51.966;8.230;2023-02-26T00:56:44;101053.72;;;0.56;93.05
37610;BME280;23457;51.966;8.230;2023-02-26T00:59:11;101055.50;;;0.57;93.34
37610;BME280;23457;51.966;8.230;2023-02-26T01:01:38;101060.44;;;0.41;93.38
37610;BME280;23457;51.966;8.230;2023-02-26T01:04:05;101063.59;;;0.50;92.98
37610;BME280;23457;51.966;8.230;2023-02-26T01:06:34;101066.53;;;0.43;92.80
37610;BME280;23457;51.966;8.230;2023-02-26T01:11:33;101064.31;;;0.34;93.72
37610;BME280;23457;51.966;8.230;2023-02-26T01:14:03;101057.91;;;0.27;93.21
37610;BME280;23457;51.966;8.230;2023-02-26T01:16:33;101059.47;;;0.39;93.20
37610;BME280;23457;51.966;8.230;2023-02-26T01:20:05;101072.75;;;0.46;92.66
37610;BME280;23457;51.966;8.230;2023-02-26T01:22:05;101067.44;;;0.43;92.15
37610;BME280;23457;51.966;8.230;2023-02-26T01:24:34;101070.00;;;0.30;92.80
37610;BME280;23457;51.966;8.230;2023-02-26T01:27:02;101071.34;;;0.38;92.86
37610;BME280;23457;51.966;8.230;2023-02-26T01:29:29;101076.97;;;0.46;92.08
37610;BME280;23457;51.966;8.230;2023-02-26T01:32:11;101078.34;;;0.41;91.82
37610;BME280;23457;51.966;8.230;2023-02-26T01:37:30;101073.91;;;0.38;92.03
37610;BME280;23457;51.966;8.230;2023-02-26T01:43:25;101072.88;;;0.34;92.05
37610;BME280;23457;51.966;8.230;2023-02-26T01:46:01;101084.31;;;0.00;93.14
37610;BME280;23457;51.966;8.230;2023-02-26T01:48:42;101082.94;;;0.05;93.11
37610;BME280;23457;51.966;8.230;2023-02-26T01:51:12;101078.31;;;-0.01;93.63
37610;BME280;23457;51.966;8.230;2023-02-26T01:53:39;101084.13;;;0.10;92.72
37610;BME280;23457;51.966;8.230;2023-02-26T01:56:17;101085.66;;;0.21;91.80
37610;BME280;23457;51.966;8.230;2023-02-26T01:58:47;101093.13;;;0.31;91.43
37610;BME280;23457;51.966;8.230;2023-02-26T02:01:15;101095.19;;;0.37;90.72
37610;BME280;23457;51.966;8.230;2023-02-26T02:03:42;101093.53;;;0.24;91.05
37610;BME280;23457;51.966;8.230;2023-02-26T02:06:15;101091.34;;;0.30;90.66
37610;BME280;23457;51.966;8.230;2023-02-26T02:08:43;101099.50;;;0.38;91.05
37610;BME280;23457;51.966;8.230;2023-02-26T02:11:11;101097.66;;;0.35;90.90
37610;BME280;23457;51.966;8.230;2023-02-26T02:21:49;101103.34;;;0.31;90.84
37610;BME280;23457;51.966;8.230;2023-02-26T02:24:24;101107.50;;;0.16;90.90
37610;BME280;23457;51.966;8.230;2023-02-26T02:27:11;101101.91;;;-0.05;92.08
37610;BME280;23457;51.966;8.230;2023-02-26T02:33:12;101107.50;;;-0.10;91.32
37610;BME280;23457;51.966;8.230;2023-02-26T02:35:43;101113.13;;;-0.03;91.09
37610;BME280;23457;51.966;8.230;2023-02-26T02:38:19;101118.44;;;-0.13;91.74
37610;BME280;23457;51.966;8.230;2023-02-26T02:40:51;101116.66;;;-0.14;91.69
37610;BME280;23457;51.966;8.230;2023-02-26T02:43:26;101126.38;;;0.05;91.24
37610;BME280;23457;51.966;8.230;2023-02-26T02:46:00;101132.06;;;0.01;90.73
37610;BME280;23457;51.966;8.230;2023-02-26T02:48:39;101134.53;;;-0.01;90.79
37610;BME280;23457;51.966;8.230;2023-02-26T02:54:23;101144.94;;;-0.11;91.53
37610;BME280;23457;51.966;8.230;2023-02-26T02:57:00;101151.91;;;-0.08;90.89
37610;BME280;23457;51.966;8.230;2023-02-26T02:59:43;101156.78;;;-0.24;91.47
37610;BME280;23457;51.966;8.230;2023-02-26T03:02:28;101154.09;;;-0.14;91.29
37610;BME280;23457;51.966;8.230;2023-02-26T03:04:59;101157.00;;;-0.21;91.49
37610;BME280;23457;51.966;8.230;2023-02-26T03:07:30;101158.97;;;-0.30;91.78
37610;BME280;23457;51.966;8.230;2023-02-26T03:09:58;101154.25;;;-0.24;91.32
37610;BME280;23457;51.966;8.230;2023-02-26T03:12:29;101159.56;;;-0.21;91.20
37610;BME280;23457;51.966;8.230;2023-02-26T03:14:57;101169.88;;;-0.20;91.18
37610;BME280;23457;51.966;8.230;2023-02-26T03:20:44;101175.41;;;-0.14;90.39
37610;BME280;23457;51.966;8.230;2023-02-26T03:26:00;101186.50;;;-0.26;91.37
37610;BME280;23457;51.966;8.230;2023-02-26T03:28:39;101187.41;;;-0.51;92.06
37610;BME280;23457;51.966;8.230;2023-02-26T03:31:17;101188.50;;;-0.34;92.15
37610;BME280;23457;51.966;8.230;2023-02-26T03:33:58;101194.84;;;-0.54;92.37
37610;BME280;23457;51.966;8.230;2023-02-26T03:39:20;101206.78;;;-0.66;93.91
37610;BME280;23457;51.966;8.230;2023-02-26T03:42:05;101211.56;;;-0.46;92.64
37610;BME280;23457;51.966;8.230;2023-02-26T03:44:56;101212.56;;;-0.44;92.15
37610;BME280;23457;51.966;8.230;2023-02-26T03:47:25;101222.34;;;-0.50;92.68
37610;BME280;23457;51.966;8.230;2023-02-26T03:50:10;101221.31;;;-0.65;93.67
37610;BME280;23457;51.966;8.230;2023-02-26T03:52:48;101226.63;;;-0.62;93.92
37610;BME280;23457;51.966;8.230;2023-02-26T03:55:29;101229.59;;;-0.56;92.90
37610;BME280;23457;51.966;8.230;2023-02-26T03:58:04;101223.22;;;-0.49;92.67
37610;BME280;23457;51.966;8.230;2023-02-26T04:00:43;101238.41;;;-0.64;93.36
37610;BME280;23457;51.966;8.230;2023-02-26T04:05:48;101232.59;;;-0.61;93.04
37610;BME280;23457;51.966;8.230;2023-02-26T04:08:17;101235.44;;;-0.70;93.25
37610;BME280;23457;51.966;8.230;2023-02-26T04:11:02;101249.50;;;-0.63;93.15
37610;BME280;23457;51.966;8.230;2023-02-26T04:13:32;101255.34;;;-0.53;93.05
37610;BME280;23457;51.966;8.230;2023-02-26T04:15:59;101251.66;;;-0.45;92.51
37610;BME280;23457;51.966;8.230;2023-02-26T04:18:27;101255.75;;;-0.47;92.22
37610;BME280;23457;51.966;8.230;2023-02-26T04:20:54;101256.97;;;-0.42;92.14
37610;BME280;23457;51.966;8.230;2023-02-26T04:23:21;101264.53;;;-0.43;91.91
37610;BME280;23457;51.966;8.230;2023-02-26T04:25:48;101276.78;;;-0.62;92.79
37610;BME280;23457;51.966;8.230;2023-02-26T04:28:15;101284.25;;;-0.65;92.81
37610;BME280;23457;51.966;8.230;2023-02-26T04:30:42;101280.16;;;-0.63;92.66
37610;BME280;23457;51.966;8.230;2023-02-26T04:33:12;101286.34;;;-0.60;92.32
37610;BME280;23457;51.966;8.230;2023-02-26T04:35:39;101295.34;;;-0.65;92.78
37610;BME280;23457;51.966;8.230;2023-02-26T04:38:06;101294.44;;;-0.54;92.44
37610;BME280;23457;51.966;8.230;2023-02-26T04:40:33;101284.97;;;-0.80;93.45
37610;BME280;23457;51.966;8.230;2023-02-26T04:42:59;101292.34;;;-0.71;93.30
37610;BME280;23457;51.966;8.230;2023-02-26T04:45:30;101293.50;;;-0.79;93.61
37610;BME280;23457;51.966;8.230;2023-02-26T04:47:57;101292.13;;;-0.74;93.54
37610;BME280;23457;51.966;8.230;2023-02-26T04:50:24;101300.09;;;-0.58;92.86
37610;BME280;23457;51.966;8.230;2023-02-26T04:52:52;101296.28;;;-0.76;93.69
37610;BME280;23457;51.966;8.230;2023-02-26T04:55:19;101306.41;;;-0.89;93.88
37610;BME280;23457;51.966;8.230;2023-02-26T04:57:46;101306.69;;;-0.85;93.60
37610;BME280;23457;51.966;8.230;2023-02-26T05:02:43;101315.22;;;-0.73;93.29
37610;BME280;23457;51.966;8.230;2023-02-26T05:05:14;101309.28;;;-0.96;94.30
37610;BME280;23457;51.966;8.230;2023-02-26T05:07:41;101315.28;;;-0.96;94.68
37610;BME280;23457;51.966;8.230;2023-02-26T05:10:08;101317.66;;;-0.74;94.14
37610;BME280;23457;51.966;8.230;2023-02-26T05:12:38;101327.75;;;-0.76;93.90
37610;BME280;23457;51.966;8.230;2023-02-26T05:15:05;101333.09;;;-0.73;93.43
37610;BME280;23457;51.966;8.230;2023-02-26T05:17:32;101341.31;;;-0.88;94.78
37610;BME280;23457;51.966;8.230;2023-02-26T05:19:59;101331.78;;;-0.79;94.34
37610;BME280;23457;51.966;8.230;2023-02-26T05:22:25;101338.34;;;-0.94;94.83
37610;BME280;23457;51.966;8.230;2023-02-26T05:24:52;101337.22;;;-0.86;94.48
37610;BME280;23457;51.966;8.230;2023-02-26T05:27:19;101346.53;;;-0.87;94.99
37610;BME280;23457;51.966;8.230;2023-02-26T05:29:46;101346.09;;;-0.81;94.92
37610;BME280;23457;51.966;8.230;2023-02-26T05:32:13;101341.63;;;-0.72;95.15
37610;BME280;23457;51.966;8.230;2023-02-26T05:34:40;101347.16;;;-0.54;94.64
37610;BME280;23457;51.966;8.230;2023-02-26T05:37:06;101345.56;;;-0.77;94.41
37610;BME280;23457;51.966;8.230;2023-02-26T05:39:33;101357.41;;;-0.66;94.83
37610;BME280;23457;51.966;8.230;2023-02-26T05:42:00;101365.50;;;-0.83;95.41
37610;BME280;23457;51.966;8.230;2023-02-26T05:44:26;101370.28;;;-0.76;95.76
37610;BME280;23457;51.966;8.230;2023-02-26T05:46:53;101364.63;;;-0.95;96.08
37610;BME280;23457;51.966;8.230;2023-02-26T05:49:20;101364.97;;;-0.79;95.44
37610;BME280;23457;51.966;8.230;2023-02-26T05:51:47;101369.31;;;-0.90;95.65
37610;BME280;23457;51.966;8.230;2023-02-26T05:54:14;101375.38;;;-0.99;96.18
37610;BME280;23457;51.966;8.230;2023-02-26T05:56:40;101379.84;;;-0.97;96.67
37610;BME280;23457;51.966;8.230;2023-02-26T05:59:07;101391.47;;;-1.00;96.66
37610;BME280;23457;51.966;8.230;2023-02-26T06:01:35;101393.81;;;-1.03;97.01
37610;BME280;23457;51.966;8.230;2023-02-26T06:04:04;101399.59;;;-1.18;97.36
37610;BME280;23457;51.966;8.230;2023-02-26T06:06:31;101407.00;;;-0.97;97.28
37610;BME280;23457;51.966;8.230;2023-02-26T06:08:58;101413.47;;;-1.02;97.67
37610;BME280;23457;51.966;8.230;2023-02-26T06:11:30;101413.88;;;-1.08;97.48
37610;BME280;23457;51.966;8.230;2023-02-26T06:13:59;101409.78;;;-1.18;98.55
37610;BME280;23457;51.966;8.230;2023-02-26T06:16:26;101434.69;;;-1.25;98.96
37610;BME280;23457;51.966;8.230;2023-02-26T06:18:54;101431.72;;;-1.20;98.54
37610;BME280;23457;51.966;8.230;2023-02-26T06:21:20;101437.50;;;-1.11;98.86
37610;BME280;23457;51.966;8.230;2023-02-26T06:23:47;101443.72;;;-1.07;99.03
37610;BME280;23457;51.966;8.230;2023-02-26T06:26:14;101453.50;;;-1.01;98.60
37610;BME280;23457;51.966;8.230;2023-02-26T06:28:40;101450.16;;;-1.00;97.85
37610;BME280;23457;51.966;8.230;2023-02-26T06:31:07;101457.91;;;-1.11;98.23
37610;BME280;23457;51.966;8.230;2023-02-26T06:33:34;101455.69;;;-1.18;98.83
37610;BME280;23457;51.966;8.230;2023-02-26T06:36:00;101450.59;;;-1.18;98.85
37610;BME280;23457;51.966;8.230;2023-02-26T06:38:28;101466.34;;;-1.12;99.03
37610;BME280;23457;51.966;8.230;2023-02-26T06:40:54;101469.91;;;-1.10;98.46
37610;BME280;23457;51.966;8.230;2023-02-26T06:43:21;101473.22;;;-1.11;98.50
37610;BME280;23457;51.966;8.230;2023-02-26T06:45:48;101471.25;;;-1.15;98.79
37610;BME280;23457;51.966;8.230;2023-02-26T06:48:15;101477.22;;;-1.14;98.90
37610;BME280;23457;51.966;8.230;2023-02-26T06:50:41;101483.91;;;-1.04;98.35
37610;BME280;23457;51.966;8.230;2023-02-26T06:53:08;101498.84;;;-1.09;98.75
37610;BME280;23457;51.966;8.230;2023-02-26T06:55:35;101497.84;;;-0.99;97.83
37610;BME280;23457;51.966;8.230;2023-02-26T06:58:02;101498.22;;;-0.95;97.90
37610;BME280;23457;51.966;8.230;2023-02-26T07:00:29;101494.78;;;-0.95;97.87
37610;BME280;23457;51.966;8.230;2023-02-26T07:02:56;101504.44;;;-0.91;97.54
37610;BME280;23457;51.966;8.230;2023-02-26T07:05:23;101499.00;;;-0.84;97.76
37610;BME280;23457;51.966;8.230;2023-02-26T07:07:50;101509.22;;;-0.84;97.37
37610;BME280;23457;51.966;8.230;2023-02-26T07:10:17;101510.44;;;-0.91;97.76
37610;BME280;23457;51.966;8.230;2023-02-26T07:12:44;101512.75;;;-0.82;97.85
37610;BME280;23457;51.966;8.230;2023-02-26T07:15:11;101518.78;;;-0.70;97.42
37610;BME280;23457;51.966;8.230;2023-02-26T07:17:37;101521.88;;;-0.74;97.11
37610;BME280;23457;51.966;8.230;2023-02-26T07:20:05;101528.31;;;-0.79;97.49
37610;BME280;23457;51.966;8.230;2023-02-26T07:22:38;101532.31;;;-0.71;97.32
37610;BME280;23457;51.966;8.230;2023-02-26T07:25:06;101532.53;;;-0.68;96.62
37610;BME280;23457;51.966;8.230;2023-02-26T07:27:33;101524.66;;;-0.71;97.44
37610;BME280;23457;51.966;8.230;2023-02-26T07:30:00;101529.41;;;-0.76;97.15
37610;BME280;23457;51.966;8.230;2023-02-26T07:32:27;101525.91;;;-0.54;96.97
37610;BME280;23457;51.966;8.230;2023-02-26T07:34:54;101526.91;;;-0.52;96.42
37610;BME280;23457;51.966;8.230;2023-02-26T07:37:21;101533.88;;;-0.61;96.21
37610;BME280;23457;51.966;8.230;2023-02-26T07:39:47;101523.88;;;-0.47;95.30
37610;BME280;23457;51.966;8.230;2023-02-26T07:42:15;101534.97;;;-0.34;94.41
37610;BME280;23457;51.966;8.230;2023-02-26T07:44:42;101544.97;;;-0.38;94.78
37610;BME280;23457;51.966;8.230;2023-02-26T07:47:09;101546.97;;;-0.33;94.87
37610;BME280;23457;51.966;8.230;2023-02-26T07:49:36;101564.09;;;-0.21;93.68
37610;BME280;23457;51.966;8.230;2023-02-26T07:52:04;101568.97;;;-0.24;93.51
37610;BME280;23457;51.966;8.230;2023-02-26T07:54:33;101562.88;;;-0.14;93.14
37610;BME280;23457;51.966;8.230;2023-02-26T07:57:00;101574.41;;;0.04;92.54
37610;BME280;23457;51.966;8.230;2023-02-26T07:59:27;101576.44;;;-0.15;92.43
37610;BME280;23457;51.966;8.230;2023-02-26T08:01:54;101580.00;;;-0.13;92.59
37610;BME280;23457;51.966;8.230;2023-02-26T08:04:21;101581.97;;;-0.09;92.46
37610;BME280;23457;51.966;8.230;2023-02-26T08:06:48;101580.09;;;0.00;92.25
37610;BME280;23457;51.966;8.230;2023-02-26T08:09:15;101585.84;;;0.09;92.19
37610;BME280;23457;51.966;8.230;2023-02-26T08:11:42;101586.94;;;0.24;91.20
37610;BME280;23457;51.966;8.230;2023-02-26T08:14:10;101593.47;;;0.32;90.56
37610;BME280;23457;51.966;8.230;2023-02-26T08:16:37;101595.31;;;0.58;89.81
37610;BME280;23457;51.966;8.230;2023-02-26T08:19:04;101605.09;;;0.52;88.27
37610;BME280;23457;51.966;8.230;2023-02-26T08:21:31;101605.94;;;0.64;87.60
37610;BME280;23457;51.966;8.230;2023-02-26T08:23:57;101604.56;;;0.81;87.40
37610;BME280;23457;51.966;8.230;2023-02-26T08:26:24;101603.13;;;0.85;87.18
37610;BME280;23457;51.966;8.230;2023-02-26T08:28:51;101607.00;;;0.80;85.58
37610;BME280;23457;51.966;8.230;2023-02-26T08:31:18;101612.72;;;0.64;86.39
37610;BME280;23457;51.966;8.230;2023-02-26T08:33:46;101619.69;;;0.78;84.80
37610;BME280;23457;51.966;8.230;2023-02-26T08:36:13;101627.75;;;0.71;85.15
37610;BME280;23457;51.966;8.230;2023-02-26T08:38:40;101623.78;;;0.63;84.77
37610;BME280;23457;51.966;8.230;2023-02-26T08:41:06;101631.16;;;0.83;84.29
37610;BME280;23457;51.966;8.230;2023-02-26T08:43:34;101635.59;;;0.86;83.97
37610;BME280;23457;51.966;8.230;2023-02-26T08:46:00;101639.50;;;0.81;83.67
37610;BME280;23457;51.966;8.230;2023-02-26T08:48:27;101637.91;;;0.94;83.64
37610;BME280;23457;51.966;8.230;2023-02-26T08:50:54;101643.44;;;1.25;82.55
37610;BME280;23457;51.966;8.230;2023-02-26T08:53:21;101652.84;;;0.88;81.78
37610;BME280;23457;51.966;8.230;2023-02-26T08:55:51;101651.31;;;1.03;82.81
37610;BME280;23457;51.966;8.230;2023-02-26T08:58:19;101652.31;;;1.05;82.06
37610;BME280;23457;51.966;8.230;2023-02-26T09:00:46;101655.53;;;1.28;80.27
37610;BME280;23457;51.966;8.230;2023-02-26T09:03:13;101665.84;;;1.41;80.81
37610;BME280;23457;51.966;8.230;2023-02-26T09:05:40;101657.84;;;1.61;79.76
37610;BME280;23457;51.966;8.230;2023-02-26T09:08:07;101661.31;;;1.37;79.05
37610;BME280;23457;51.966;8.230;2023-02-26T09:10:35;101675.56;;;1.58;78.08
37610;BME280;23457;51.966;8.230;2023-02-26T09:13:01;101675.78;;;1.61;77.31
37610;BME280;23457;51.966;8.230;2023-02-26T09:15:28;101675.59;;;1.71;77.29
37610;BME280;23457;51.966;8.230;2023-02-26T09:17:56;101689.38;;;1.60;76.20
37610;BME280;23457;51.966;8.230;2023-02-26T09:20:23;101690.06;;;1.71;77.39
37610;BME280;23457;51.966;8.230;2023-02-26T09:22:50;101679.97;;;1.86;76.14
37610;BME280;23457;51.966;8.230;2023-02-26T09:25:17;101680.16;;;1.89;75.73
37610;BME280;23457;51.966;8.230;2023-02-26T09:27:43;101691.03;;;1.98;74.08
37610;BME280;23457;51.966;8.230;2023-02-26T09:30:11;101694.28;;;2.08;72.48
37610;BME280;23457;51.966;8.230;2023-02-26T09:32:38;101701.09;;;2.08;72.30
37610;BME280;23457;51.966;8.230;2023-02-26T09:35:05;101693.19;;;2.31;72.92
37610;BME280;23457;51.966;8.230;2023-02-26T09:37:32;101700.69;;;2.41;71.89
37610;BME280;23457;51.966;8.230;2023-02-26T09:39:59;101708.00;;;2.09;70.05
37610;BME280;23457;51.966;8.230;2023-02-26T09:42:44;101718.44;;;1.99;70.39
37610;BME280;23457;51.966;8.230;2023-02-26T09:45:28;101707.81;;;2.45;68.79
37610;BME280;23457;51.966;8.230;2023-02-26T09:47:56;101702.09;;;2.49;66.95
37610;BME280;23457;51.966;8.230;2023-02-26T09:50:34;101719.63;;;2.57;67.99
37610;BME280;23457;51.966;8.230;2023-02-26T09:55:40;101715.50;;;2.32;66.36
37610;BME280;23457;51.966;8.230;2023-02-26T09:58:35;101723.59;;;2.38;65.74
37610;BME280;23457;51.966;8.230;2023-02-26T10:01:17;101725.75;;;2.59;64.15
37610;BME280;23457;51.966;8.230;2023-02-26T10:09:56;101740.88;;;2.28;62.54
37610;BME280;23457;51.966;8.230;2023-02-26T10:12:29;101738.16;;;2.79;63.16
37610;BME280;23457;51.966;8.230;2023-02-26T10:15:05;101738.47;;;2.83;60.58
37610;BME280;23457;51.966;8.230;2023-02-26T10:17:52;101743.63;;;2.70;61.21
37610;BME280;23457;51.966;8.230;2023-02-26T10:23:38;101738.09;;;2.77;62.12
37610;BME280;23457;51.966;8.230;2023-02-26T10:26:18;101733.19;;;3.36;62.05
37610;BME280;23457;51.966;8.230;2023-02-26T10:35:15;101758.59;;;3.04;59.51
37610;BME280;23457;51.966;8.230;2023-02-26T10:37:56;101753.00;;;2.70;59.42
37610;BME280;23457;51.966;8.230;2023-02-26T10:40:54;101762.44;;;2.97;58.14
37610;BME280;23457;51.966;8.230;2023-02-26T10:43:38;101760.25;;;3.16;57.58
37610;BME280;23457;51.966;8.230;2023-02-26T10:51:37;101767.69;;;3.40;56.03
37610;BME280;23457;51.966;8.230;2023-02-26T10:54:14;101764.94;;;3.37;55.84
37610;BME280;23457;51.966;8.230;2023-02-26T10:56:42;101768.69;;;3.56;55.94
37610;BME280;23457;51.966;8.230;2023-02-26T10:59:09;101770.41;;;3.43;54.67
37610;BME280;23457;51.966;8.230;2023-02-26T11:01:36;101780.69;;;3.15;55.25
37610;BME280;23457;51.966;8.230;2023-02-26T11:04:06;101775.06;;;3.48;54.54
37610;BME280;23457;51.966;8.230;2023-02-26T11:06:41;101771.84;;;3.38;53.71
37610;BME280;23457;51.966;8.230;2023-02-26T11:09:34;101767.16;;;3.73;54.38
37610;BME280;23457;51.966;8.230;2023-02-26T11:12:06;101769.72;;;4.30;54.01
37610;BME280;23457;51.966;8.230;2023-02-26T11:14:41;101771.38;;;4.30;53.07
37610;BME280;23457;51.966;8.230;2023-02-26T11:17:16;101768.41;;;3.94;52.59
37610;BME280;23457;51.966;8.230;2023-02-26T11:19:58;101778.03;;;4.12;52.66
37610;BME280;23457;51.966;8.230;2023-02-26T11:22:29;101770.50;;;4.29;52.22
37610;BME280;23457;51.966;8.230;2023-02-26T11:24:57;101771.91;;;4.10;51.55
37610;BME280;23457;51.966;8.230;2023-02-26T11:27:30;101771.81;;;4.23;50.87
37610;BME280;23457;51.966;8.230;2023-02-26T11:30:14;101768.88;;;3.87;51.30
37610;BME280;23457;51.966;8.230;2023-02-26T11:32:49;101768.06;;;3.88;51.82
37610;BME280;23457;51.966;8.230;2023-02-26T11:35:17;101773.91;;;3.86;52.19
37610;BME280;23457;51.966;8.230;2023-02-26T11:37:51;101773.28;;;3.75;51.67
37610;BME280;23457;51.966;8.230;2023-02-26T11:40:27;101769.69;;;4.16;51.15
37610;BME280;23457;51.966;8.230;2023-02-26T11:43:01;101774.81;;;4.01;52.03
37610;BME280;23457;51.966;8.230;2023-02-26T11:45:29;101768.78;;;3.86;51.51
37610;BME280;23457;51.966;8.230;2023-02-26T11:48:03;101771.47;;;4.17;51.82
37610;BME280;23457;51.966;8.230;2023-02-26T11:50:35;101757.78;;;4.32;49.46
37610;BME280;23457;51.966;8.230;2023-02-26T11:53:06;101771.03;;;4.24;50.43
37610;BME280;23457;51.966;8.230;2023-02-26T11:55:37;101770.03;;;4.22;49.96
37610;BME280;23457;51.966;8.230;2023-02-26T11:58:18;101775.00;;;4.19;50.37
37610;BME280;23457;51.966;8.230;2023-02-26T12:00:46;101768.16;;;4.63;50.83
37610;BME280;23457;51.966;8.230;2023-02-26T12:03:18;101765.88;;;4.84;51.12
37610;BME280;23457;51.966;8.230;2023-02-26T12:05:45;101772.31;;;4.61;51.15
37610;BME280;23457;51.966;8.230;2023-02-26T12:08:28;101768.78;;;4.45;52.60
37610;BME280;23457;51.966;8.230;2023-02-26T12:11:22;101772.84;;;3.82;53.43
37610;BME280;23457;51.966;8.230;2023-02-26T12:17:03;101774.22;;;3.63;55.16
37610;BME280;23457;51.966;8.230;2023-02-26T12:19:40;101769.22;;;3.23;55.32
37610;BME280;23457;51.966;8.230;2023-02-26T12:30:34;101769.16;;;3.92;54.34
37610;BME280;23457;51.966;8.230;2023-02-26T12:36:33;101771.13;;;4.40;52.32
37610;BME280;23457;51.966;8.230;2023-02-26T12:41:54;101768.94;;;4.62;50.77
37610;BME280;23457;51.966;8.230;2023-02-26T12:44:45;101767.59;;;4.69;51.19
37610;BME280;23457;51.966;8.230;2023-02-26T13:09:16;101774.28;;;4.07;51.69
37610;BME280;23457;51.966;8.230;2023-02-26T13:12:03;101778.56;;;4.21;50.59
37610;BME280;23457;51.966;8.230;2023-02-26T13:17:46;101778.47;;;4.49;50.77
37610;BME280;23457;51.966;8.230;2023-02-26T13:20:23;101774.28;;;4.65;51.06
37610;BME280;23457;51.966;8.230;2023-02-26T13:22:56;101774.06;;;4.77;50.19
37610;BME280;23457;51.966;8.230;2023-02-26T13:25:46;101782.00;;;4.65;51.63
37610;BME280;23457;51.966;8.230;2023-02-26T13:31:17;101782.31;;;3.83;52.05
37610;BME280;23457;51.966;8.230;2023-02-26T13:33:47;101779.91;;;3.72;52.28
37610;BME280;23457;51.966;8.230;2023-02-26T13:36:16;101769.88;;;4.04;52.17
37610;BME280;23457;51.966;8.230;2023-02-26T13:41:18;101774.84;;;4.16;51.43
37610;BME280;23457;51.966;8.230;2023-02-26T13:47:11;101768.41;;;4.68;51.84
37610;BME280;23457;51.966;8.230;2023-02-26T13:50:04;101757.84;;;4.94;50.41
37610;BME280;23457;51.966;8.230;2023-02-26T13:52:54;101769.78;;;4.92;49.29
37610;BME280;23457;51.966;8.230;2023-02-26T13:55:43;101764.00;;;4.36;49.12
37610;BME280;23457;51.966;8.230;2023-02-26T14:03:30;101753.94;;;5.01;49.76
37610;BME280;23457;51.966;8.230;2023-02-26T14:06:20;101753.94;;;5.01;49.88
37610;BME280;23457;51.966;8.230;2023-02-26T14:08:52;101754.56;;;4.97;50.22
37610;BME280;23457;51.966;8.230;2023-02-26T14:16:44;101756.03;;;4.92;48.70
37610;BME280;23457;51.966;8.230;2023-02-26T14:19:32;101758.28;;;5.02;48.34
37610;BME280;23457;51.966;8.230;2023-02-26T14:22:22;101764.84;;;4.81;48.74
37610;BME280;23457;51.966;8.230;2023-02-26T14:25:13;101748.16;;;4.74;49.62
37610;BME280;23457;51.966;8.230;2023-02-26T14:27:45;101756.88;;;4.61;48.90
37610;BME280;23457;51.966;8.230;2023-02-26T14:30:26;101756.59;;;4.72;49.06
37610;BME280;23457;51.966;8.230;2023-02-26T14:33:06;101763.53;;;4.58;47.96
37610;BME280;23457;51.966;8.230;2023-02-26T14:35:38;101767.13;;;4.91;47.42
37610;BME280;23457;51.966;8.230;2023-02-26T14:38:11;101771.22;;;4.87;47.19
37610;BME280;23457;51.966;8.230;2023-02-26T14:43:49;101761.75;;;5.02;48.07
37610;BME280;23457;51.966;8.230;2023-02-26T14:46:20;101768.28;;;5.12;48.54
37610;BME280;23457;51.966;8.230;2023-02-26T14:48:47;101771.16;;;5.02;48.70
37610;BME280;23457;51.966;8.230;2023-02-26T14:57:07;101772.00;;;5.17;48.50
37610;BME280;23457;51.966;8.230;2023-02-26T15:00:02;101775.41;;;5.16;48.02
37610;BME280;23457;51.966;8.230;2023-02-26T15:05:32;101772.34;;;5.39;48.63
37610;BME280;23457;51.966;8.230;2023-02-26T15:24:25;101778.00;;;5.49;47.70
37610;BME280;23457;51.966;8.230;2023-02-26T15:26:56;101779.44;;;5.27;48.27
37610;BME280;23457;51.966;8.230;2023-02-26T15:29:29;101783.22;;;5.18;48.66
37610;BME280;23457;51.966;8.230;2023-02-26T15:32:00;101779.97;;;5.22;49.46
37610;BME280;23457;51.966;8.230;2023-02-26T15:34:31;101784.75;;;5.47;49.61
37610;BME280;23457;51.966;8.230;2023-02-26T15:36:59;101795.78;;;4.51;52.65
37610;BME280;23457;51.966;8.230;2023-02-26T15:39:26;101793.63;;;4.59;52.67
37610;BME280;23457;51.966;8.230;2023-02-26T15:41:54;101795.59;;;4.48;51.93
37610;BME280;23457;51.966;8.230;2023-02-26T15:44:25;101793.63;;;4.44;52.54
37610;BME280;23457;51.966;8.230;2023-02-26T15:47:01;101797.31;;;4.93;52.08
37610;BME280;23457;51.966;8.230;2023-02-26T15:49:36;101800.97;;;5.13;50.72
37610;BME280;23457;51.966;8.230;2023-02-26T15:52:05;101794.94;;;5.76;49.75
37610;BME280;23457;51.966;8.230;2023-02-26T15:57:21;101794.88;;;5.91;48.52
37610;BME280;23457;51.966;8.230;2023-02-26T15:59:52;101792.72;;;6.86;48.00